createdAt,value
2018-05-06T00:01:04.589Z,10.90
2018-05-06T00:03:32.897Z,10.90
2018-05-06T00:06:00.433Z,10.80
2018-05-06T00:08:28.720Z,10.90
2018-05-06T00:10:56.238Z,10.90
2018-05-06T00:13:24.118Z,10.90
2018-05-06T00:15:52.371Z,10.70
2018-05-06T00:18:20.677Z,10.70
2018-05-06T00:20:48.972Z,10.70
2018-05-06T00:23:16.546Z,10.60
2018-05-06T00:25:44.067Z,10.60
2018-05-06T00:28:11.681Z,10.60
2018-05-06T00:30:39.972Z,10.50
2018-05-06T00:33:08.256Z,10.50
2018-05-06T00:35:36.536Z,10.40
2018-05-06T00:38:04.835Z,10.40
2018-05-06T00:40:33.109Z,10.40
2018-05-06T00:43:00.629Z,10.40
2018-05-06T00:45:28.141Z,10.40
2018-05-06T00:47:55.685Z,10.30
2018-05-06T00:50:23.212Z,10.20
2018-05-06T00:52:51.507Z,10.20
2018-05-06T00:55:19.021Z,10.20
2018-05-06T00:57:46.527Z,10.20
2018-05-06T01:00:14.940Z,10.00
2018-05-06T01:02:42.520Z,10.00
2018-05-06T01:05:10.053Z,10.00
2018-05-06T01:07:37.584Z,10.00
2018-05-06T01:10:05.104Z,9.90
2018-05-06T01:12:33.368Z,9.80
2018-05-06T01:15:00.897Z,9.70
2018-05-06T01:17:28.425Z,9.80
2018-05-06T01:19:55.958Z,9.80
2018-05-06T01:22:23.458Z,9.80
2018-05-06T01:24:52.482Z,9.60
2018-05-06T01:27:20.027Z,9.60
2018-05-06T01:29:47.545Z,9.60
2018-05-06T01:32:15.041Z,9.60
2018-05-06T01:34:42.588Z,9.60
2018-05-06T01:37:10.112Z,9.50
2018-05-06T01:39:37.621Z,9.60
2018-05-06T01:42:05.895Z,9.50
2018-05-06T01:44:34.217Z,9.50
2018-05-06T01:47:01.713Z,9.50
2018-05-06T01:49:29.283Z,9.50
2018-05-06T01:51:56.845Z,9.60
2018-05-06T01:54:24.416Z,9.50
2018-05-06T01:56:51.928Z,9.50
2018-05-06T01:59:19.452Z,9.30
2018-05-06T02:01:46.969Z,9.30
2018-05-06T02:04:14.506Z,9.30
2018-05-06T02:06:42.056Z,9.30
2018-05-06T02:09:09.584Z,9.20
2018-05-06T02:11:37.105Z,9.10
2018-05-06T02:14:04.627Z,9.10
2018-05-06T02:16:32.138Z,9.10
2018-05-06T02:18:59.707Z,9.10
2018-05-06T02:21:27.972Z,9.20
2018-05-06T02:23:55.489Z,9.20
2018-05-06T02:26:23.037Z,9.30
2018-05-06T02:28:51.308Z,9.20
2018-05-06T02:31:19.629Z,9.10
2018-05-06T02:33:47.148Z,9.10
2018-05-06T02:36:14.714Z,9.10
2018-05-06T02:38:42.236Z,9.10
2018-05-06T02:41:10.545Z,9.00
2018-05-06T02:43:38.081Z,9.00
2018-05-06T02:46:06.385Z,8.90
2018-05-06T02:48:34.654Z,8.80
2018-05-06T02:51:02.988Z,8.80
2018-05-06T02:53:30.524Z,8.80
2018-05-06T02:55:58.851Z,8.80
2018-05-06T02:58:26.392Z,8.80
2018-05-06T03:00:54.708Z,8.70
2018-05-06T03:03:22.239Z,8.70
2018-05-06T03:05:49.796Z,8.70
2018-05-06T03:08:17.368Z,8.60
2018-05-06T03:10:44.909Z,8.60
2018-05-06T03:13:12.446Z,8.50
2018-05-06T03:15:39.987Z,8.60
2018-05-06T03:18:09.002Z,8.40
2018-05-06T03:20:36.596Z,8.40
2018-05-06T03:23:04.907Z,8.40
2018-05-06T03:25:32.449Z,8.30
2018-05-06T03:28:00.731Z,8.30
2018-05-06T03:30:28.274Z,8.30
2018-05-06T03:32:55.817Z,8.30
2018-05-06T03:35:23.401Z,8.30
2018-05-06T03:37:50.933Z,8.30
2018-05-06T03:40:19.213Z,8.30
2018-05-06T03:42:47.513Z,8.20
2018-05-06T03:45:15.815Z,8.20
2018-05-06T03:47:43.388Z,8.10
2018-05-06T03:50:10.935Z,8.20
2018-05-06T03:52:38.447Z,8.20
2018-05-06T03:55:05.989Z,8.20
2018-05-06T03:57:45.353Z,8.20
2018-05-06T04:00:24.729Z,8.20
2018-05-06T04:02:52.233Z,8.20
2018-05-06T04:05:19.754Z,8.30
2018-05-06T04:07:47.395Z,8.30
2018-05-06T04:10:16.504Z,8.30
2018-05-06T04:12:44.102Z,8.30
2018-05-06T04:15:11.607Z,8.40
2018-05-06T04:17:39.159Z,8.40
2018-05-06T04:20:06.673Z,8.40
2018-05-06T04:22:34.969Z,8.50
2018-05-06T04:25:02.497Z,8.50
2018-05-06T04:27:30.152Z,8.60
2018-05-06T04:29:57.677Z,8.60
2018-05-06T04:32:25.190Z,8.70
2018-05-06T04:34:52.744Z,8.70
2018-05-06T04:37:21.073Z,8.80
2018-05-06T04:39:48.667Z,8.80
2018-05-06T04:42:16.241Z,8.90
2018-05-06T04:44:43.995Z,9.00
2018-05-06T04:47:11.522Z,9.10
2018-05-06T04:49:39.945Z,9.30
2018-05-06T04:52:07.473Z,9.30
2018-05-06T04:54:35.060Z,9.40
2018-05-06T04:57:03.367Z,9.60
2018-05-06T04:59:30.912Z,9.60
2018-05-06T05:01:58.428Z,9.80
2018-05-06T05:04:25.949Z,10.00
2018-05-06T05:06:53.465Z,10.20
2018-05-06T05:09:20.990Z,10.50
2018-05-06T05:11:48.493Z,11.60
2018-05-06T05:14:16.031Z,15.20
2018-05-06T05:16:43.531Z,18.80
2018-05-06T05:19:11.809Z,23.00
2018-05-06T05:21:40.114Z,24.70
2018-05-06T05:24:07.636Z,24.60
2018-05-06T05:26:35.192Z,26.50
2018-05-06T05:29:02.693Z,27.70
2018-05-06T05:31:30.240Z,26.90
2018-05-06T05:33:57.763Z,27.90
2018-05-06T05:36:26.062Z,29.30
2018-05-06T05:38:53.585Z,29.30
2018-05-06T05:41:21.105Z,29.70
2018-05-06T05:43:48.649Z,30.80
2018-05-06T05:46:16.216Z,31.20
2018-05-06T05:48:43.730Z,30.20
2018-05-06T05:51:11.495Z,31.30
2018-05-06T05:53:39.053Z,30.10
2018-05-06T05:56:07.334Z,30.50
2018-05-06T05:58:34.829Z,30.50
2018-05-06T06:01:02.523Z,32.50
2018-05-06T06:03:30.019Z,34.70
2018-05-06T06:05:57.551Z,34.40
2018-05-06T06:08:25.110Z,35.10
2018-05-06T06:10:53.700Z,36.90
2018-05-06T06:13:21.389Z,36.80
2018-05-06T06:15:48.955Z,36.90
2018-05-06T06:18:16.501Z,37.50
2018-05-06T06:20:44.069Z,35.60
2018-05-06T06:23:11.650Z,35.80
2018-05-06T06:25:40.206Z,36.70
2018-05-06T06:28:07.808Z,36.70
2018-05-06T06:30:35.318Z,37.00
2018-05-06T06:33:03.190Z,36.00
2018-05-06T06:35:31.517Z,35.50
2018-05-06T06:37:59.129Z,35.50
2018-05-06T06:40:26.833Z,36.60
2018-05-06T06:42:54.449Z,36.80
2018-05-06T06:45:22.184Z,36.30
2018-05-06T06:47:50.031Z,36.00
2018-05-06T06:50:18.316Z,33.90
2018-05-06T06:52:46.195Z,33.80
2018-05-06T06:55:14.515Z,35.20
2018-05-06T06:57:43.017Z,34.90
2018-05-06T07:00:10.567Z,34.90
2018-05-06T07:02:39.101Z,35.70
2018-05-06T07:05:06.738Z,35.70
2018-05-06T07:07:35.033Z,35.40
2018-05-06T07:10:02.577Z,35.40
2018-05-06T07:12:30.093Z,35.90
2018-05-06T07:14:57.674Z,34.50
2018-05-06T07:17:25.230Z,32.50
2018-05-06T07:19:52.799Z,33.00
2018-05-06T07:22:20.363Z,33.20
2018-05-06T07:24:49.185Z,36.10
2018-05-06T07:27:16.767Z,36.00
2018-05-06T07:29:44.304Z,36.50
2018-05-06T07:32:12.585Z,35.10
2018-05-06T07:34:40.219Z,35.10
2018-05-06T07:37:07.796Z,35.70
2018-05-06T07:39:35.330Z,35.00
2018-05-06T07:42:02.864Z,34.30
2018-05-06T07:44:30.488Z,33.30
2018-05-06T07:46:58.080Z,35.60
2018-05-06T07:49:25.629Z,35.90
2018-05-06T07:51:53.229Z,35.70
2018-05-06T07:54:20.840Z,34.30
2018-05-06T07:56:49.128Z,34.60
2018-05-06T07:59:16.695Z,34.60
2018-05-06T08:01:44.245Z,35.20
2018-05-06T08:04:11.820Z,36.50
2018-05-06T08:06:39.376Z,36.00
2018-05-06T08:09:07.151Z,35.50
2018-05-06T08:11:34.688Z,35.80
2018-05-06T08:14:02.242Z,36.60
2018-05-06T08:16:30.632Z,36.90
2018-05-06T08:18:58.113Z,36.80
2018-05-06T08:21:25.631Z,36.50
2018-05-06T08:23:53.187Z,35.40
2018-05-06T08:26:20.738Z,37.60
2018-05-06T08:28:48.279Z,38.20
2018-05-06T08:31:15.965Z,39.00
2018-05-06T08:33:44.175Z,36.30
2018-05-06T08:36:11.762Z,36.30
2018-05-06T08:38:39.345Z,35.90
2018-05-06T08:41:06.909Z,35.50
2018-05-06T08:43:34.523Z,34.50
2018-05-06T08:46:02.096Z,34.20
2018-05-06T08:48:29.605Z,35.00
2018-05-06T08:50:57.172Z,36.90
2018-05-06T08:53:25.487Z,37.30
2018-05-06T08:55:53.061Z,37.20
2018-05-06T08:58:20.578Z,34.30
2018-05-06T09:00:49.639Z,36.00
2018-05-06T09:03:17.149Z,36.00
2018-05-06T09:05:44.668Z,36.80
2018-05-06T09:08:12.199Z,36.20
2018-05-06T09:10:39.791Z,38.30
2018-05-06T09:13:08.129Z,38.10
2018-05-06T09:15:35.676Z,38.00
2018-05-06T09:18:03.430Z,37.20
2018-05-06T09:20:31.797Z,37.30
2018-05-06T09:22:59.301Z,37.20
2018-05-06T09:25:27.666Z,38.00
2018-05-06T09:27:56.703Z,38.00
2018-05-06T09:30:24.482Z,36.90
2018-05-06T09:32:52.373Z,37.20
2018-05-06T09:35:19.934Z,36.00
2018-05-06T09:37:48.449Z,35.10
2018-05-06T09:40:16.004Z,35.20
2018-05-06T09:42:43.522Z,33.50
2018-05-06T09:45:11.038Z,33.30
2018-05-06T09:47:40.038Z,30.60
2018-05-06T09:50:07.611Z,30.50
2018-05-06T09:52:35.879Z,29.20
2018-05-06T09:55:03.633Z,29.10
2018-05-06T09:57:31.230Z,29.00
2018-05-06T09:59:59.079Z,29.20
2018-05-06T10:02:26.571Z,28.80
2018-05-06T10:04:54.280Z,28.40
2018-05-06T10:07:22.864Z,27.80
2018-05-06T10:09:51.231Z,28.10
2018-05-06T10:12:19.667Z,27.50
2018-05-06T10:14:47.317Z,27.40
2018-05-06T10:17:15.072Z,27.40
2018-05-06T10:19:42.584Z,27.50
2018-05-06T10:22:10.980Z,27.00
2018-05-06T10:24:38.619Z,27.00
2018-05-06T10:27:06.246Z,27.00
2018-05-06T10:29:33.771Z,26.60
2018-05-06T10:32:02.053Z,26.50
2018-05-06T10:34:29.554Z,26.50
2018-05-06T10:36:57.873Z,26.70
2018-05-06T10:39:25.434Z,26.70
2018-05-06T10:41:52.961Z,26.80
2018-05-06T10:44:20.726Z,26.90
2018-05-06T10:46:48.235Z,26.90
2018-05-06T10:49:16.622Z,25.90
2018-05-06T10:51:44.956Z,26.20
2018-05-06T10:54:12.475Z,26.20
2018-05-06T10:56:40.852Z,26.20
2018-05-06T10:59:09.168Z,26.30
2018-05-06T11:01:37.784Z,26.30
2018-05-06T11:04:05.345Z,26.30
2018-05-06T11:06:32.889Z,26.10
2018-05-06T11:09:01.358Z,26.30
2018-05-06T11:11:29.189Z,26.30
2018-05-06T11:13:58.192Z,26.40
2018-05-06T11:16:29.729Z,26.60
2018-05-06T11:18:57.991Z,26.60
2018-05-06T11:21:25.500Z,26.60
2018-05-06T11:23:53.866Z,26.20
2018-05-06T11:26:21.636Z,26.20
2018-05-06T11:28:49.465Z,26.20
2018-05-06T11:31:16.993Z,26.40
2018-05-06T11:33:44.812Z,26.50
2018-05-06T11:36:16.664Z,26.80
2018-05-06T11:38:44.296Z,26.80
2018-05-06T11:41:12.142Z,26.70
2018-05-06T11:43:40.075Z,26.50
2018-05-06T11:46:08.301Z,26.50
2018-05-06T11:48:36.564Z,26.40
2018-05-06T11:51:05.689Z,26.30
2018-05-06T11:53:34.147Z,26.30
2018-05-06T11:56:01.663Z,26.30
2018-05-06T11:58:29.945Z,26.10
2018-05-06T12:00:58.283Z,26.30
2018-05-06T12:03:26.375Z,26.30
2018-05-06T12:05:54.104Z,26.20
2018-05-06T12:08:22.437Z,26.60
2018-05-06T12:10:49.967Z,26.50
2018-05-06T12:13:18.356Z,26.70
2018-05-06T12:15:47.639Z,26.40
2018-05-06T12:18:15.163Z,26.40
2018-05-06T12:20:42.657Z,26.40
2018-05-06T12:23:11.881Z,26.40
2018-05-06T12:25:39.700Z,26.50
2018-05-06T12:28:08.409Z,26.50
2018-05-06T12:30:35.943Z,26.50
2018-05-06T12:33:03.463Z,26.50
2018-05-06T12:35:31.172Z,26.60
2018-05-06T12:37:58.789Z,26.60
2018-05-06T12:40:27.133Z,26.60
2018-05-06T12:42:54.855Z,26.60
2018-05-06T12:45:23.192Z,26.40
2018-05-06T12:47:50.703Z,26.40
2018-05-06T12:50:18.980Z,26.80
2018-05-06T12:52:46.531Z,26.80
2018-05-06T12:55:14.062Z,26.80
2018-05-06T12:57:41.724Z,26.70
2018-05-06T13:00:10.433Z,26.70
2018-05-06T13:02:38.072Z,26.70
2018-05-06T13:05:06.389Z,26.90
2018-05-06T13:07:34.689Z,27.10
2018-05-06T13:10:02.184Z,27.10
2018-05-06T13:12:29.711Z,27.00
2018-05-06T13:14:58.003Z,26.60
2018-05-06T13:17:26.466Z,26.60
2018-05-06T13:19:53.981Z,26.60
2018-05-06T13:22:21.558Z,26.80
2018-05-06T13:24:49.171Z,26.90
2018-05-06T13:27:16.735Z,27.00
2018-05-06T13:29:44.260Z,26.90
2018-05-06T13:32:12.544Z,26.90
2018-05-06T13:34:40.048Z,26.90
2018-05-06T13:37:07.590Z,26.90
2018-05-06T13:39:35.903Z,26.90
2018-05-06T13:42:03.479Z,26.80
2018-05-06T13:44:31.072Z,27.00
2018-05-06T13:46:58.755Z,27.10
2018-05-06T13:49:26.252Z,27.10
2018-05-06T13:51:53.764Z,27.00
2018-05-06T13:54:21.289Z,27.10
2018-05-06T13:56:48.788Z,27.10
2018-05-06T13:59:17.276Z,27.20
2018-05-06T14:01:45.561Z,27.00
2018-05-06T14:04:14.021Z,27.00
2018-05-06T14:06:41.527Z,27.00
2018-05-06T14:09:09.839Z,27.10
2018-05-06T14:11:37.416Z,27.00
2018-05-06T14:14:04.949Z,27.00
2018-05-06T14:16:32.461Z,26.90
2018-05-06T14:18:59.998Z,27.10
2018-05-06T14:21:28.256Z,26.60
2018-05-06T14:23:55.777Z,26.60
2018-05-06T14:26:23.291Z,26.70
2018-05-06T14:28:50.917Z,26.80
2018-05-06T14:31:19.176Z,26.70
2018-05-06T14:33:46.703Z,26.70
2018-05-06T14:36:14.205Z,26.90
2018-05-06T14:38:41.769Z,26.90
2018-05-06T14:41:09.264Z,26.90
2018-05-06T14:43:36.784Z,26.80
2018-05-06T14:46:04.306Z,26.80
2018-05-06T14:48:33.360Z,26.80
2018-05-06T14:51:00.956Z,26.80
2018-05-06T14:53:28.494Z,26.60
2018-05-06T14:55:56.138Z,26.60
2018-05-06T14:58:23.633Z,26.50
2018-05-06T15:00:51.200Z,26.50
2018-05-06T15:03:19.499Z,26.50
2018-05-06T15:05:47.048Z,26.50
2018-05-06T15:08:15.333Z,26.40
2018-05-06T15:10:42.922Z,26.40
2018-05-06T15:13:11.324Z,26.60
2018-05-06T15:15:38.863Z,26.60
2018-05-06T15:18:06.448Z,26.70
2018-05-06T15:20:34.741Z,26.60
2018-05-06T15:23:02.999Z,26.60
2018-05-06T15:25:30.567Z,26.60
2018-05-06T15:27:58.175Z,26.50
2018-05-06T15:30:26.481Z,26.60
2018-05-06T15:32:53.988Z,26.60
2018-05-06T15:35:21.499Z,26.50
2018-05-06T15:37:49.773Z,26.50
2018-05-06T15:40:17.471Z,26.50
2018-05-06T15:42:45.770Z,26.50
2018-05-06T15:45:13.370Z,26.50
2018-05-06T15:47:40.940Z,26.50
2018-05-06T15:50:08.537Z,26.40
2018-05-06T15:52:36.043Z,26.40
2018-05-06T15:55:04.327Z,26.30
2018-05-06T15:57:31.811Z,26.30
2018-05-06T16:00:00.122Z,26.40
2018-05-06T16:02:58.165Z,26.40
2018-05-06T16:05:25.700Z,26.40
2018-05-06T16:07:53.397Z,26.30
2018-05-06T16:10:20.956Z,26.30
2018-05-06T16:12:48.468Z,26.30
2018-05-06T16:15:16.810Z,26.20
2018-05-06T16:17:44.351Z,26.10
2018-05-06T16:20:11.889Z,26.20
2018-05-06T16:22:39.581Z,26.20
2018-05-06T16:25:07.060Z,26.20
2018-05-06T16:27:34.568Z,26.10
2018-05-06T16:30:02.097Z,25.90
2018-05-06T16:32:30.372Z,25.80
2018-05-06T16:34:58.072Z,25.80
2018-05-06T16:37:25.614Z,25.80
2018-05-06T16:39:53.155Z,25.80
2018-05-06T16:42:20.709Z,25.70
2018-05-06T16:44:48.277Z,25.60
2018-05-06T16:47:15.766Z,25.60
2018-05-06T16:49:43.302Z,25.60
2018-05-06T16:52:10.794Z,25.50
2018-05-06T16:54:38.312Z,25.50
2018-05-06T16:57:05.819Z,25.40
2018-05-06T16:59:33.386Z,25.30
2018-05-06T17:02:00.925Z,25.30
2018-05-06T17:04:28.536Z,25.20
2018-05-06T17:06:56.125Z,25.20
2018-05-06T17:09:24.340Z,25.10
2018-05-06T17:11:51.869Z,25.00
2018-05-06T17:14:19.435Z,25.00
2018-05-06T17:16:46.958Z,24.90
2018-05-06T17:19:14.462Z,24.80
2018-05-06T17:21:42.808Z,24.80
2018-05-06T17:24:10.311Z,24.80
2018-05-06T17:26:37.914Z,24.70
2018-05-06T17:29:05.414Z,24.60
2018-05-06T17:31:32.948Z,24.50
2018-05-06T17:34:01.259Z,24.30
2018-05-06T17:36:28.800Z,24.30
2018-05-06T17:38:57.071Z,24.20
2018-05-06T17:41:24.594Z,24.10
2018-05-06T17:43:52.112Z,24.00
2018-05-06T17:46:19.638Z,24.00
2018-05-06T17:48:47.196Z,24.00
2018-05-06T17:51:14.766Z,24.00
2018-05-06T17:53:42.263Z,23.90
2018-05-06T17:56:09.800Z,23.80
2018-05-06T17:58:38.077Z,23.70
2018-05-06T18:01:06.382Z,23.70
2018-05-06T18:03:33.905Z,23.70
2018-05-06T18:06:01.425Z,23.60
2018-05-06T18:08:29.083Z,23.50
2018-05-06T18:10:57.362Z,23.40
2018-05-06T18:13:24.968Z,23.40
2018-05-06T18:15:52.531Z,23.20
2018-05-06T18:18:20.807Z,23.00
2018-05-06T18:20:49.135Z,22.90
2018-05-06T18:23:16.657Z,22.90
2018-05-06T18:25:44.194Z,23.00
2018-05-06T18:28:11.729Z,22.80
2018-05-06T18:30:40.039Z,22.70
2018-05-06T18:33:07.666Z,22.60
2018-05-06T18:35:36.067Z,22.50
2018-05-06T18:38:04.373Z,22.40
2018-05-06T18:40:31.898Z,22.30
2018-05-06T18:42:59.435Z,22.30
2018-05-06T18:45:26.931Z,22.20
2018-05-06T18:47:54.475Z,22.10
2018-05-06T18:50:22.154Z,22.00
2018-05-06T18:52:49.699Z,22.00
2018-05-06T18:55:18.016Z,21.60
2018-05-06T18:57:45.567Z,21.60
2018-05-06T19:00:13.065Z,21.60
2018-05-06T19:02:40.764Z,21.60
2018-05-06T19:05:08.650Z,21.50
2018-05-06T19:07:36.232Z,21.40
2018-05-06T19:10:03.832Z,21.10
2018-05-06T19:12:32.144Z,21.10
2018-05-06T19:14:59.658Z,21.10
2018-05-06T19:17:27.222Z,21.00
2018-05-06T19:19:54.760Z,21.10
2018-05-06T19:22:22.317Z,20.90
2018-05-06T19:24:50.370Z,20.80
2018-05-06T19:27:17.896Z,20.60
2018-05-06T19:29:45.510Z,20.30
2018-05-06T19:32:12.986Z,20.30
2018-05-06T19:34:40.502Z,20.30
2018-05-06T19:37:08.043Z,20.10
2018-05-06T19:39:36.375Z,20.00
2018-05-06T19:42:06.165Z,20.00
2018-05-06T19:44:32.192Z,20.20
2018-05-06T19:47:00.491Z,20.10
2018-05-06T19:49:28.763Z,19.90
2018-05-06T19:51:56.284Z,19.90
2018-05-06T19:54:23.944Z,19.70
2018-05-06T19:56:51.489Z,19.60
2018-05-06T19:59:19.751Z,19.40
2018-05-06T20:01:47.376Z,19.40
2018-05-06T20:04:14.876Z,19.50
2018-05-06T20:06:42.409Z,19.40
2018-05-06T20:09:10.704Z,19.20
2018-05-06T20:11:38.235Z,19.20
2018-05-06T20:14:05.743Z,19.20
2018-05-06T20:16:33.272Z,19.10
2018-05-06T20:19:00.815Z,19.00
2018-05-06T20:21:28.361Z,19.00
2018-05-06T20:23:55.880Z,19.00
2018-05-06T20:26:23.391Z,18.80
2018-05-06T20:28:51.672Z,18.40
2018-05-06T20:31:19.992Z,18.50
2018-05-06T20:33:47.507Z,18.50
2018-05-06T20:36:15.013Z,18.30
2018-05-06T20:38:43.291Z,18.10
2018-05-06T20:41:11.603Z,18.00
2018-05-06T20:43:39.857Z,18.10
2018-05-06T20:46:07.476Z,18.10
2018-05-06T20:48:34.986Z,18.00
2018-05-06T20:51:02.484Z,18.10
2018-05-06T20:53:30.771Z,17.90
2018-05-06T20:55:59.076Z,17.70
2018-05-06T20:58:27.369Z,17.60
2018-05-06T21:00:55.632Z,17.60
2018-05-06T21:03:23.166Z,17.60
2018-05-06T21:05:50.699Z,17.70
2018-05-06T21:08:18.972Z,17.50
2018-05-06T21:10:47.251Z,17.30
2018-05-06T21:13:14.848Z,17.30
2018-05-06T21:15:43.113Z,17.10
2018-05-06T21:18:10.710Z,17.00
2018-05-06T21:20:38.968Z,17.00
2018-05-06T21:23:06.474Z,16.90
2018-05-06T21:25:34.050Z,16.80
2018-05-06T21:28:01.612Z,16.70
2018-05-06T21:30:29.088Z,16.60
2018-05-06T21:32:56.662Z,16.50
2018-05-06T21:35:24.230Z,16.40
2018-05-06T21:37:52.501Z,16.40
2018-05-06T21:40:20.812Z,16.30
2018-05-06T21:42:48.315Z,16.30
2018-05-06T21:45:15.827Z,16.20
2018-05-06T21:47:43.329Z,16.20
2018-05-06T21:50:10.846Z,16.10
2018-05-06T21:52:38.347Z,16.00
2018-05-06T21:55:06.648Z,16.20
2018-05-06T21:57:34.168Z,16.10
2018-05-06T22:00:01.695Z,16.20
2018-05-06T22:02:29.186Z,16.00
2018-05-06T22:04:56.704Z,15.90
2018-05-06T22:07:24.204Z,15.70
2018-05-06T22:09:52.488Z,15.80
2018-05-06T22:12:20.813Z,15.70
2018-05-06T22:14:48.318Z,15.70
2018-05-06T22:17:15.815Z,15.60
2018-05-06T22:19:44.221Z,15.40
2018-05-06T22:22:11.781Z,15.40
2018-05-06T22:24:40.041Z,15.40
2018-05-06T22:27:07.569Z,15.30
2018-05-06T22:29:35.089Z,15.40
2018-05-06T22:32:02.634Z,15.40
2018-05-06T22:34:30.165Z,15.20
2018-05-06T22:36:58.552Z,15.20
2018-05-06T22:39:26.048Z,15.10
2018-05-06T22:41:53.569Z,15.10
2018-05-06T22:44:21.065Z,15.00
2018-05-06T22:46:49.363Z,14.90
2018-05-06T22:49:17.643Z,15.00
2018-05-06T22:51:46.020Z,14.90
2018-05-06T22:54:13.522Z,14.90
2018-05-06T22:56:41.043Z,15.10
2018-05-06T22:59:08.553Z,15.00
2018-05-06T23:01:36.836Z,14.90
2018-05-06T23:04:05.137Z,14.70
2018-05-06T23:06:32.675Z,14.70
2018-05-06T23:09:00.272Z,14.70
2018-05-06T23:11:28.670Z,14.30
2018-05-06T23:13:56.923Z,14.10
2018-05-06T23:16:24.491Z,14.10
2018-05-06T23:18:51.972Z,14.00
2018-05-06T23:21:19.491Z,13.90
2018-05-06T23:23:46.994Z,13.80
2018-05-06T23:26:14.523Z,13.70
2018-05-06T23:28:42.045Z,13.60
2018-05-06T23:31:09.541Z,13.60
2018-05-06T23:33:37.828Z,13.50
2018-05-06T23:36:05.331Z,13.50
2018-05-06T23:38:32.863Z,13.50
2018-05-06T23:41:00.377Z,13.40
2018-05-06T23:43:27.891Z,13.30
2018-05-06T23:45:55.383Z,13.20
2018-05-06T23:48:22.901Z,13.20
2018-05-06T23:50:50.408Z,13.10
2018-05-06T23:53:17.928Z,13.10
2018-05-06T23:55:45.494Z,13.00
2018-05-06T23:58:13.073Z,13.00
